Time;durP1;ratioP1;P1;durP2;ratioP2;P2;SDS_P1;SDS_P2;PMS_P1;PMS_P2;Temp;Humidity;BMP_temperature;BMP_pressure;BME280_temperature;BME280_humidity;BME280_pressure;Samples;Min_cycle;Max_cycle;Signal;HPM_P1;HPM_P2
2023/03/09 00:01:29;;;;;;;1.00;0.90;;;;;;;;;;4965107;28;20101;-83
2023/03/09 00:03:55;;;;;;;1.52;0.70;;;;;;;;;;4965699;28;20272;-83
2023/03/09 00:06:21;;;;;;;1.95;0.88;;;;;;;;;;4964277;28;20030;-82
2023/03/09 00:08:47;;;;;;;3.22;0.77;;;;;;;;;;4952738;28;20130;-83
2023/03/09 00:11:13;;;;;;;4.13;1.00;;;;;;;;;;4953307;28;20034;-82
2023/03/09 00:13:39;;;;;;;1.73;0.73;;;;;;;;;;4956134;28;20098;-83
2023/03/09 00:16:19;;;;;;;0.70;0.70;;;;;;;;;;4972854;28;20069;-83
2023/03/09 00:18:45;;;;;;;2.25;1.20;;;;;;;;;;4957575;28;20031;-82
2023/03/09 00:21:14;;;;;;;1.55;0.82;;;;;;;;;;4970414;28;20034;-81
2023/03/09 00:23:41;;;;;;;4.53;1.88;;;;;;;;;;4970465;28;20023;-82
2023/03/09 00:26:07;;;;;;;1.25;0.93;;;;;;;;;;4964702;28;20041;-82
2023/03/09 00:28:33;;;;;;;2.60;0.80;;;;;;;;;;4958591;28;20034;-82
2023/03/09 00:31:04;;;;;;;0.88;0.88;;;;;;;;;;4964652;28;20034;-82
2023/03/09 00:33:29;;;;;;;2.05;0.70;;;;;;;;;;4946549;28;20049;-81
2023/03/09 00:35:55;;;;;;;1.85;0.80;;;;;;;;;;4964795;28;20035;-82
2023/03/09 00:38:20;;;;;;;0.70;0.70;;;;;;;;;;4964021;28;20038;-80
2023/03/09 00:40:45;;;;;;;0.75;0.75;;;;;;;;;;4962082;28;20081;-83
2023/03/09 00:43:11;;;;;;;1.73;0.65;;;;;;;;;;4965919;28;20042;-83
2023/03/09 00:45:36;;;;;;;0.45;0.45;;;;;;;;;;4964694;28;20051;-82
2023/03/09 00:48:02;;;;;;;3.22;0.52;;;;;;;;;;4945753;28;20069;-81
2023/03/09 00:50:28;;;;;;;0.70;0.50;;;;;;;;;;4944543;28;20466;-84
2023/03/09 00:52:53;;;;;;;0.75;0.73;;;;;;;;;;4943230;28;20046;-82
2023/03/09 00:55:18;;;;;;;3.78;1.48;;;;;;;;;;4961908;28;20114;-82
2023/03/09 00:57:44;;;;;;;1.60;0.80;;;;;;;;;;4969130;28;20133;-83
2023/03/09 01:00:10;;;;;;;0.60;0.60;;;;;;;;;;4957598;28;20037;-82
2023/03/09 01:02:36;;;;;;;1.63;0.50;;;;;;;;;;4945610;28;20061;-82
2023/03/09 01:05:01;;;;;;;0.22;0.22;;;;;;;;;;4954810;28;20039;-82
2023/03/09 01:07:29;;;;;;;1.45;0.57;;;;;;;;;;4955415;28;20482;-82
2023/03/09 01:09:55;;;;;;;1.88;0.40;;;;;;;;;;4957968;28;20090;-82
2023/03/09 01:12:20;;;;;;;2.72;0.40;;;;;;;;;;4942816;28;20031;-83
2023/03/09 01:14:47;;;;;;;0.40;0.40;;;;;;;;;;4959160;28;20039;-84
2023/03/09 01:17:12;;;;;;;3.50;0.60;;;;;;;;;;4955670;28;20031;-81
2023/03/09 01:19:38;;;;;;;1.33;0.40;;;;;;;;;;4959748;28;20045;-83
2023/03/09 01:22:03;;;;;;;0.28;0.28;;;;;;;;;;4960904;28;20026;-83
2023/03/09 01:24:29;;;;;;;0.20;0.20;;;;;;;;;;4965415;28;20031;-83
2023/03/09 01:26:54;;;;;;;0.30;0.30;;;;;;;;;;4964735;28;20113;-82
2023/03/09 01:29:19;;;;;;;0.10;0.10;;;;;;;;;;4965255;28;20085;-81
2023/03/09 01:31:45;;;;;;;0.20;0.20;;;;;;;;;;4966232;28;20497;-82
2023/03/09 01:34:13;;;;;;;0.20;0.20;;;;;;;;;;4948436;28;20046;-82
2023/03/09 01:36:40;;;;;;;3.25;0.20;;;;;;;;;;4950967;28;20472;-82
2023/03/09 01:39:05;;;;;;;0.38;0.38;;;;;;;;;;4950788;28;20038;-82
2023/03/09 01:41:30;;;;;;;0.40;0.40;;;;;;;;;;4965849;28;20038;-82
2023/03/09 01:43:56;;;;;;;0.43;0.43;;;;;;;;;;4968895;28;20035;-83
2023/03/09 01:46:24;;;;;;;0.68;0.50;;;;;;;;;;4967681;28;20054;-82
2023/03/09 01:48:52;;;;;;;0.35;0.30;;;;;;;;;;4950723;28;20506;-82
2023/03/09 01:51:22;;;;;;;1.65;0.38;;;;;;;;;;4969557;28;20035;-81
2023/03/09 01:53:49;;;;;;;0.20;0.20;;;;;;;;;;4951007;28;20050;-81
2023/03/09 01:56:19;;;;;;;3.38;0.45;;;;;;;;;;4969299;28;20441;-82
2023/03/09 01:58:48;;;;;;;0.80;0.30;;;;;;;;;;4966529;28;20027;-81
2023/03/09 02:01:13;;;;;;;0.20;0.20;;;;;;;;;;4958520;28;20066;-82
2023/03/09 02:03:44;;;;;;;0.30;0.30;;;;;;;;;;4960107;28;20057;-82
2023/03/09 02:06:15;;;;;;;0.40;0.40;;;;;;;;;;4961688;28;20046;-81
2023/03/09 02:09:15;;;;;;;0.75;0.30;;;;;;;;;;4949555;28;20031;-85
2023/03/09 02:11:41;;;;;;;0.28;0.28;;;;;;;;;;4956954;28;20050;-84
2023/03/09 02:14:08;;;;;;;0.20;0.20;;;;;;;;;;4944285;28;20370;-85
2023/03/09 02:16:33;;;;;;;0.25;0.25;;;;;;;;;;4961525;28;20030;-85
2023/03/09 02:18:58;;;;;;;1.25;0.35;;;;;;;;;;4961292;28;20404;-83
2023/03/09 02:21:44;;;;;;;0.28;0.28;;;;;;;;;;4960389;28;20038;-83
2023/03/09 02:24:31;;;;;;;0.52;0.22;;;;;;;;;;4961879;28;20031;-83
2023/03/09 02:27:02;;;;;;;0.20;0.20;;;;;;;;;;4963507;28;20031;-81
2023/03/09 02:29:28;;;;;;;0.45;0.20;;;;;;;;;;4951388;28;20385;-83
2023/03/09 02:31:54;;;;;;;0.90;0.40;;;;;;;;;;4969689;28;20081;-82
2023/03/09 02:34:20;;;;;;;0.63;0.30;;;;;;;;;;4970173;28;20030;-83
2023/03/09 02:36:45;;;;;;;0.30;0.30;;;;;;;;;;4969140;28;20030;-83
2023/03/09 02:39:20;;;;;;;0.28;0.28;;;;;;;;;;4967941;28;20042;-83
2023/03/09 02:41:46;;;;;;;0.30;0.30;;;;;;;;;;4953154;28;20065;-83
2023/03/09 02:44:13;;;;;;;0.30;0.30;;;;;;;;;;4968738;28;20054;-83
2023/03/09 02:46:39;;;;;;;0.25;0.25;;;;;;;;;;4968471;28;21087;-83
2023/03/09 02:49:04;;;;;;;0.17;0.17;;;;;;;;;;4968703;28;20073;-82
2023/03/09 02:51:29;;;;;;;0.38;0.30;;;;;;;;;;4951540;28;20037;-82
2023/03/09 02:53:54;;;;;;;0.85;0.17;;;;;;;;;;4969327;28;20035;-83
2023/03/09 02:56:20;;;;;;;0.20;0.20;;;;;;;;;;4952318;28;20824;-83
2023/03/09 02:58:45;;;;;;;0.17;0.17;;;;;;;;;;4953975;28;20018;-83
2023/03/09 03:01:10;;;;;;;0.20;0.20;;;;;;;;;;4952677;28;20043;-83
2023/03/09 03:03:36;;;;;;;1.00;0.20;;;;;;;;;;4970329;28;20034;-84
2023/03/09 03:06:01;;;;;;;0.10;0.10;;;;;;;;;;4957316;28;20015;-84
2023/03/09 03:08:27;;;;;;;0.20;0.20;;;;;;;;;;4974810;28;20033;-83
2023/03/09 03:10:52;;;;;;;0.20;0.20;;;;;;;;;;4973017;28;20030;-82
2023/03/09 03:13:17;;;;;;;0.20;0.20;;;;;;;;;;4958756;28;20026;-82
2023/03/09 03:15:43;;;;;;;0.28;0.20;;;;;;;;;;4973212;28;20034;-83
2023/03/09 03:18:08;;;;;;;0.10;0.10;;;;;;;;;;4973450;28;20023;-83
2023/03/09 03:20:33;;;;;;;0.20;0.20;;;;;;;;;;4957090;28;21393;-82
2023/03/09 03:22:59;;;;;;;0.20;0.20;;;;;;;;;;4974152;28;20034;-83
2023/03/09 03:25:24;;;;;;;0.20;0.20;;;;;;;;;;4975037;28;20037;-82
2023/03/09 03:27:49;;;;;;;0.10;0.10;;;;;;;;;;4973262;28;20023;-82
2023/03/09 03:30:15;;;;;;;0.20;0.20;;;;;;;;;;4972330;28;20077;-82
2023/03/09 03:32:40;;;;;;;0.30;0.30;;;;;;;;;;4971629;28;20063;-83
2023/03/09 03:35:06;;;;;;;0.20;0.20;;;;;;;;;;4972124;28;20089;-82
2023/03/09 03:37:32;;;;;;;0.28;0.25;;;;;;;;;;4974004;28;20060;-83
2023/03/09 03:39:58;;;;;;;0.35;0.35;;;;;;;;;;4973852;28;20031;-82
2023/03/09 03:42:24;;;;;;;1.95;0.38;;;;;;;;;;4973038;28;20039;-82
2023/03/09 03:44:49;;;;;;;0.30;0.30;;;;;;;;;;4972986;28;20077;-82
2023/03/09 03:47:14;;;;;;;0.30;0.20;;;;;;;;;;4972628;28;20090;-83
2023/03/09 03:49:40;;;;;;;1.75;0.70;;;;;;;;;;4971473;28;20029;-82
2023/03/09 03:52:06;;;;;;;0.52;0.43;;;;;;;;;;4970804;28;20026;-82
2023/03/09 03:54:31;;;;;;;0.30;0.30;;;;;;;;;;4972745;28;20035;-82
2023/03/09 03:56:57;;;;;;;3.92;0.50;;;;;;;;;;4971451;28;20034;-82
2023/03/09 03:59:22;;;;;;;3.13;0.70;;;;;;;;;;4971444;28;20041;-83
2023/03/09 04:01:47;;;;;;;0.82;0.52;;;;;;;;;;4955219;28;20101;-84
2023/03/09 04:04:13;;;;;;;0.10;0.10;;;;;;;;;;4973190;28;20027;-83
2023/03/09 04:06:38;;;;;;;0.22;0.22;;;;;;;;;;4972840;28;20038;-83
2023/03/09 04:09:04;;;;;;;0.15;0.15;;;;;;;;;;4971161;28;20161;-83
2023/03/09 04:11:30;;;;;;;0.57;0.35;;;;;;;;;;4954464;28;20073;-83
2023/03/09 04:13:56;;;;;;;2.80;0.47;;;;;;;;;;4972251;28;20067;-83
2023/03/09 04:16:21;;;;;;;0.90;0.38;;;;;;;;;;4972021;28;20120;-84
2023/03/09 04:18:46;;;;;;;1.70;0.70;;;;;;;;;;4955778;28;20030;-82
2023/03/09 04:21:12;;;;;;;5.00;0.88;;;;;;;;;;4953573;28;20019;-82
2023/03/09 04:23:37;;;;;;;1.88;1.00;;;;;;;;;;4955009;28;20038;-83
2023/03/09 04:26:04;;;;;;;2.17;0.60;;;;;;;;;;4972471;28;21027;-83
2023/03/09 04:28:30;;;;;;;0.75;0.38;;;;;;;;;;4973341;28;20710;-84
2023/03/09 04:30:55;;;;;;;1.02;0.30;;;;;;;;;;4972625;28;20050;-83
2023/03/09 04:33:21;;;;;;;6.82;0.95;;;;;;;;;;4953954;28;20485;-83
2023/03/09 04:35:46;;;;;;;3.72;1.10;;;;;;;;;;4972824;28;20576;-82
2023/03/09 04:38:13;;;;;;;1.17;0.90;;;;;;;;;;4972704;28;20034;-84
2023/03/09 04:40:38;;;;;;;5.13;0.85;;;;;;;;;;4974074;28;20516;-83
2023/03/09 04:43:03;;;;;;;0.57;0.38;;;;;;;;;;4973888;28;20062;-83
2023/03/09 04:45:29;;;;;;;0.63;0.63;;;;;;;;;;4971592;28;20026;-84
2023/03/09 04:47:55;;;;;;;3.75;0.90;;;;;;;;;;4955706;28;20046;-83
2023/03/09 04:50:20;;;;;;;1.95;0.73;;;;;;;;;;4972610;28;20041;-84
2023/03/09 04:52:46;;;;;;;1.27;1.17;;;;;;;;;;4972317;28;20077;-82
2023/03/09 04:55:11;;;;;;;5.32;1.30;;;;;;;;;;4971206;28;20037;-85
2023/03/09 04:57:36;;;;;;;0.30;0.30;;;;;;;;;;4955019;28;20030;-82
2023/03/09 05:00:04;;;;;;;2.33;1.52;;;;;;;;;;4974248;28;20045;-82
2023/03/09 05:02:30;;;;;;;1.80;0.70;;;;;;;;;;4972066;28;20137;-82
2023/03/09 05:04:56;;;;;;;5.45;1.38;;;;;;;;;;4972437;28;20031;-83
2023/03/09 05:07:21;;;;;;;2.47;0.80;;;;;;;;;;4972998;28;20023;-82
2023/03/09 05:09:48;;;;;;;2.78;1.33;;;;;;;;;;4971225;28;20023;-83
2023/03/09 05:12:13;;;;;;;5.38;0.85;;;;;;;;;;4971679;28;20134;-83
2023/03/09 05:14:38;;;;;;;1.50;0.98;;;;;;;;;;4973271;28;20122;-84
2023/03/09 05:17:04;;;;;;;2.65;0.68;;;;;;;;;;4972714;28;20396;-83
2023/03/09 05:19:29;;;;;;;2.65;1.13;;;;;;;;;;4970197;28;20037;-83
2023/03/09 05:21:55;;;;;;;1.48;0.98;;;;;;;;;;4972998;28;20019;-83
2023/03/09 05:24:20;;;;;;;3.20;0.60;;;;;;;;;;4979566;28;20077;-83
2023/03/09 05:26:45;;;;;;;6.20;1.30;;;;;;;;;;4985259;28;20106;-82
2023/03/09 05:29:11;;;;;;;1.63;0.65;;;;;;;;;;4986297;28;20033;-84
2023/03/09 05:31:36;;;;;;;5.25;0.75;;;;;;;;;;4975683;28;20030;-84
2023/03/09 05:34:01;;;;;;;3.08;1.42;;;;;;;;;;4950891;28;20043;-84
2023/03/09 05:36:27;;;;;;;1.42;0.60;;;;;;;;;;4966008;28;20489;-83
2023/03/09 05:38:52;;;;;;;1.50;0.73;;;;;;;;;;4966190;28;20063;-82
2023/03/09 05:41:18;;;;;;;1.13;0.40;;;;;;;;;;4947837;28;20030;-83
2023/03/09 05:43:44;;;;;;;4.45;1.20;;;;;;;;;;4966533;28;20039;-84
2023/03/09 05:46:11;;;;;;;0.22;0.22;;;;;;;;;;4964745;28;20030;-83
2023/03/09 05:48:38;;;;;;;7.93;1.20;;;;;;;;;;4965101;28;20497;-83
2023/03/09 05:51:04;;;;;;;1.10;0.80;;;;;;;;;;4957791;28;20046;-83
2023/03/09 05:53:30;;;;;;;1.73;1.00;;;;;;;;;;4961874;28;20058;-82
2023/03/09 05:55:56;;;;;;;4.03;1.20;;;;;;;;;;4956732;28;20093;-82
2023/03/09 05:58:21;;;;;;;5.97;1.40;;;;;;;;;;4962830;28;20047;-82
2023/03/09 06:00:47;;;;;;;8.07;2.70;;;;;;;;;;4958149;28;20026;-86
2023/03/09 06:03:12;;;;;;;1.67;0.65;;;;;;;;;;4970084;28;20042;-84
2023/03/09 06:05:37;;;;;;;3.95;1.13;;;;;;;;;;4969709;28;20114;-83
2023/03/09 06:08:03;;;;;;;6.75;1.55;;;;;;;;;;4970914;28;20117;-84
2023/03/09 06:10:29;;;;;;;1.73;0.88;;;;;;;;;;4974468;28;20097;-86
2023/03/09 06:12:54;;;;;;;2.67;1.33;;;;;;;;;;4958927;28;20024;-84
2023/03/09 06:15:20;;;;;;;6.15;1.17;;;;;;;;;;4958972;28;20027;-85
2023/03/09 06:17:45;;;;;;;2.50;1.13;;;;;;;;;;4977763;28;20124;-85
2023/03/09 06:20:11;;;;;;;6.63;1.30;;;;;;;;;;4982983;28;20022;-84
2023/03/09 06:22:36;;;;;;;1.83;1.10;;;;;;;;;;4958382;28;20023;-84
2023/03/09 06:25:02;;;;;;;10.05;1.63;;;;;;;;;;4969452;28;20058;-84
2023/03/09 06:27:27;;;;;;;3.97;0.73;;;;;;;;;;4981172;28;20030;-85
2023/03/09 06:29:54;;;;;;;7.20;1.48;;;;;;;;;;4985587;28;20034;-84
2023/03/09 06:32:20;;;;;;;3.13;1.20;;;;;;;;;;4969140;28;20026;-85
2023/03/09 06:34:45;;;;;;;2.42;1.10;;;;;;;;;;4977757;28;20513;-84
2023/03/09 06:37:11;;;;;;;4.10;1.80;;;;;;;;;;4959641;28;20027;-86
2023/03/09 06:39:36;;;;;;;7.55;1.77;;;;;;;;;;4960053;28;20026;-87
2023/03/09 06:42:01;;;;;;;8.10;1.38;;;;;;;;;;4977175;28;20080;-84
2023/03/09 06:44:27;;;;;;;6.20;1.30;;;;;;;;;;4997265;28;20030;-86
2023/03/09 06:46:52;;;;;;;3.95;0.90;;;;;;;;;;4992538;28;20153;-85
2023/03/09 06:49:17;;;;;;;4.65;1.38;;;;;;;;;;4984235;28;20031;-84
2023/03/09 06:51:43;;;;;;;3.58;1.60;;;;;;;;;;4985712;28;20030;-85
2023/03/09 06:54:08;;;;;;;5.97;1.52;;;;;;;;;;4972473;28;20025;-84
2023/03/09 06:56:33;;;;;;;4.30;1.38;;;;;;;;;;4972284;28;20023;-86
2023/03/09 06:58:59;;;;;;;6.13;1.10;;;;;;;;;;4959000;28;20030;-86
2023/03/09 07:01:24;;;;;;;4.82;1.25;;;;;;;;;;4957433;28;20041;-86
2023/03/09 07:03:49;;;;;;;3.05;1.20;;;;;;;;;;4983708;28;20026;-86
2023/03/09 07:06:15;;;;;;;12.48;1.55;;;;;;;;;;4978491;28;20033;-85
2023/03/09 07:08:40;;;;;;;3.13;1.10;;;;;;;;;;4977278;28;20022;-85
2023/03/09 07:11:05;;;;;;;3.90;1.10;;;;;;;;;;4977172;28;20041;-87
2023/03/09 07:13:32;;;;;;;5.05;0.95;;;;;;;;;;4973401;28;20034;-86
2023/03/09 07:16:00;;;;;;;3.53;1.13;;;;;;;;;;4983213;28;20030;-86
2023/03/09 07:18:26;;;;;;;6.72;0.93;;;;;;;;;;4964142;28;20050;-85
2023/03/09 07:20:51;;;;;;;3.03;0.98;;;;;;;;;;4977289;28;20478;-87
2023/03/09 07:23:16;;;;;;;1.95;1.00;;;;;;;;;;4963772;28;20544;-85
2023/03/09 07:25:42;;;;;;;6.03;1.33;;;;;;;;;;4995621;28;20026;-86
2023/03/09 07:28:08;;;;;;;6.78;1.30;;;;;;;;;;4963825;28;20117;-86
2023/03/09 07:30:33;;;;;;;3.75;1.25;;;;;;;;;;4957554;28;20089;-88
2023/03/09 07:32:59;;;;;;;4.07;1.23;;;;;;;;;;4977761;28;20552;-86
2023/03/09 07:35:26;;;;;;;5.53;1.10;;;;;;;;;;4960637;28;20031;-84
2023/03/09 07:37:51;;;;;;;5.53;1.40;;;;;;;;;;4965368;28;20031;-86
2023/03/09 07:40:18;;;;;;;4.53;1.40;;;;;;;;;;4955137;28;20127;-87
2023/03/09 07:42:43;;;;;;;5.15;1.50;;;;;;;;;;4953859;28;20510;-88
2023/03/09 07:45:09;;;;;;;2.72;0.93;;;;;;;;;;4969805;28;20054;-87
2023/03/09 07:47:34;;;;;;;2.05;1.20;;;;;;;;;;4966770;28;20121;-86
2023/03/09 07:50:00;;;;;;;5.38;1.20;;;;;;;;;;4965522;28;20034;-87
2023/03/09 07:52:30;;;;;;;4.18;1.13;;;;;;;;;;4974898;28;20030;-87
2023/03/09 07:55:00;;;;;;;2.05;1.02;;;;;;;;;;4963806;28;20102;-84
2023/03/09 07:57:31;;;;;;;5.28;0.90;;;;;;;;;;4968427;28;20026;-86
2023/03/09 07:59:57;;;;;;;2.75;0.80;;;;;;;;;;4979774;28;20106;-87
2023/03/09 08:02:23;;;;;;;3.17;1.10;;;;;;;;;;4974204;28;20069;-84
2023/03/09 08:04:48;;;;;;;3.22;1.50;;;;;;;;;;4979987;28;20023;-85
2023/03/09 08:07:14;;;;;;;3.80;0.93;;;;;;;;;;4986058;28;20031;-85
2023/03/09 08:09:39;;;;;;;0.93;0.70;;;;;;;;;;4976622;28;20503;-87
2023/03/09 08:12:05;;;;;;;1.02;0.90;;;;;;;;;;4983441;28;20033;-87
2023/03/09 08:14:30;;;;;;;1.27;0.68;;;;;;;;;;4985101;28;20393;-84
2023/03/09 08:16:56;;;;;;;2.25;1.38;;;;;;;;;;4988633;28;20122;-82
2023/03/09 08:19:21;;;;;;;6.72;0.90;;;;;;;;;;4978126;28;20065;-86
2023/03/09 08:21:50;;;;;;;6.00;0.80;;;;;;;;;;4971158;28;20465;-81
2023/03/09 08:24:16;;;;;;;0.80;0.50;;;;;;;;;;4973588;28;20040;-83
2023/03/09 08:26:42;;;;;;;0.82;0.82;;;;;;;;;;4978818;28;20117;-83
2023/03/09 08:29:07;;;;;;;2.80;0.98;;;;;;;;;;4985655;28;20686;-84
2023/03/09 08:31:34;;;;;;;0.73;0.63;;;;;;;;;;4988210;28;20057;-84
2023/03/09 08:34:00;;;;;;;1.58;0.98;;;;;;;;;;4977604;28;20038;-85
2023/03/09 08:36:25;;;;;;;1.73;0.80;;;;;;;;;;4955165;28;20027;-82
2023/03/09 08:38:51;;;;;;;3.92;0.98;;;;;;;;;;4976061;28;20090;-86
2023/03/09 08:41:17;;;;;;;6.32;1.13;;;;;;;;;;4976979;28;20445;-86
2023/03/09 08:43:43;;;;;;;4.07;0.68;;;;;;;;;;4971988;28;20015;-84
2023/03/09 08:46:09;;;;;;;4.70;0.63;;;;;;;;;;4974184;28;20097;-83
2023/03/09 08:48:34;;;;;;;4.15;1.10;;;;;;;;;;4974779;28;20038;-83
2023/03/09 08:51:00;;;;;;;3.63;1.20;;;;;;;;;;4956318;28;20123;-84
2023/03/09 08:53:26;;;;;;;0.80;0.63;;;;;;;;;;4969606;28;20033;-84
2023/03/09 08:55:51;;;;;;;3.30;0.80;;;;;;;;;;4970697;28;20027;-85
2023/03/09 08:58:17;;;;;;;1.15;0.52;;;;;;;;;;4972099;28;20030;-80
2023/03/09 09:00:42;;;;;;;0.60;0.60;;;;;;;;;;4970774;28;20060;-82
2023/03/09 09:03:08;;;;;;;2.50;0.80;;;;;;;;;;4973600;28;20034;-80
2023/03/09 09:05:34;;;;;;;0.82;0.45;;;;;;;;;;4958529;28;20035;-82
2023/03/09 09:08:00;;;;;;;1.92;0.70;;;;;;;;;;4972584;28;20038;-81
2023/03/09 09:10:25;;;;;;;2.17;1.10;;;;;;;;;;4970645;28;20725;-81
2023/03/09 09:12:51;;;;;;;2.28;0.70;;;;;;;;;;4975361;28;20092;-84
2023/03/09 09:15:17;;;;;;;5.55;1.20;;;;;;;;;;4976585;28;20108;-82
2023/03/09 09:17:42;;;;;;;2.38;0.65;;;;;;;;;;4982988;28;20426;-84
2023/03/09 09:20:09;;;;;;;2.50;1.00;;;;;;;;;;4970280;28;20037;-86
2023/03/09 09:22:35;;;;;;;1.15;0.55;;;;;;;;;;4987689;28;20022;-85
2023/03/09 09:25:00;;;;;;;1.63;0.73;;;;;;;;;;4978475;28;20033;-84
2023/03/09 09:27:29;;;;;;;2.97;0.95;;;;;;;;;;4978348;28;20035;-84
2023/03/09 09:29:56;;;;;;;2.47;0.95;;;;;;;;;;4965037;28;20069;-86
2023/03/09 09:32:21;;;;;;;1.90;0.90;;;;;;;;;;4982190;28;20030;-85
2023/03/09 09:34:46;;;;;;;5.47;0.85;;;;;;;;;;4973445;28;20078;-84
2023/03/09 09:37:12;;;;;;;3.25;0.80;;;;;;;;;;4978018;28;20042;-83
2023/03/09 09:39:38;;;;;;;2.72;0.60;;;;;;;;;;4979711;28;20034;-82
2023/03/09 09:42:11;;;;;;;2.50;0.73;;;;;;;;;;4956902;28;20093;-82
2023/03/09 09:44:47;;;;;;;0.45;0.45;;;;;;;;;;4983728;28;20023;-82
2023/03/09 09:47:25;;;;;;;1.42;0.50;;;;;;;;;;4971393;28;20030;-82
2023/03/09 09:49:53;;;;;;;3.70;1.05;;;;;;;;;;4966015;28;20698;-82
2023/03/09 09:53:06;;;;;;;3.78;0.98;;;;;;;;;;4960657;28;20037;-83
2023/03/09 09:55:37;;;;;;;1.17;0.60;;;;;;;;;;4953136;28;20061;-84
2023/03/09 09:58:24;;;;;;;2.35;0.88;;;;;;;;;;4977838;28;20057;-82
2023/03/09 10:00:54;;;;;;;2.55;0.55;;;;;;;;;;4988790;28;20039;-83
2023/03/09 10:03:27;;;;;;;2.70;0.55;;;;;;;;;;4989822;28;20098;-85
2023/03/09 10:06:16;;;;;;;0.90;0.70;;;;;;;;;;4986628;28;20043;-87
2023/03/09 10:08:45;;;;;;;4.45;0.65;;;;;;;;;;4978159;28;20023;-85
2023/03/09 10:11:23;;;;;;;0.90;0.50;;;;;;;;;;4966079;28;20039;-88
2023/03/09 10:13:56;;;;;;;0.82;0.47;;;;;;;;;;4970914;28;20463;-86
2023/03/09 10:16:26;;;;;;;2.08;0.50;;;;;;;;;;4977389;28;20031;-82
2023/03/09 10:19:07;;;;;;;1.02;0.63;;;;;;;;;;4976867;28;20525;-87
2023/03/09 10:21:40;;;;;;;4.18;0.47;;;;;;;;;;4983267;28;20425;-84
2023/03/09 10:24:21;;;;;;;2.90;0.90;;;;;;;;;;4971806;28;20117;-84
2023/03/09 10:27:24;;;;;;;1.65;0.82;;;;;;;;;;4989627;28;20041;-83
2023/03/09 10:29:55;;;;;;;2.55;1.10;;;;;;;;;;4961525;28;20511;-84
2023/03/09 10:32:45;;;;;;;1.25;0.60;;;;;;;;;;4949660;28;20023;-84
2023/03/09 10:35:38;;;;;;;2.78;0.90;;;;;;;;;;4957435;28;20365;-84
2023/03/09 10:38:03;;;;;;;0.20;0.20;;;;;;;;;;4958222;28;20034;-84
2023/03/09 10:40:44;;;;;;;2.10;1.00;;;;;;;;;;4979988;28;20478;-83
2023/03/09 10:43:19;;;;;;;1.58;0.75;;;;;;;;;;4959959;28;20026;-83
2023/03/09 10:45:44;;;;;;;1.33;0.40;;;;;;;;;;4964365;28;20477;-83
2023/03/09 10:48:20;;;;;;;1.30;0.60;;;;;;;;;;4987558;28;20022;-83
2023/03/09 10:50:56;;;;;;;1.75;0.65;;;;;;;;;;4969327;28;20031;-85
2023/03/09 10:53:23;;;;;;;2.83;0.68;;;;;;;;;;4972990;28;20073;-85
2023/03/09 10:55:53;;;;;;;1.50;0.70;;;;;;;;;;4976041;28;20505;-84
2023/03/09 10:58:23;;;;;;;4.35;0.75;;;;;;;;;;4975722;28;20053;-84
2023/03/09 11:01:11;;;;;;;3.20;0.88;;;;;;;;;;4973778;28;20536;-84
2023/03/09 11:03:46;;;;;;;0.52;0.52;;;;;;;;;;4968300;28;20533;-84
2023/03/09 11:06:24;;;;;;;3.28;0.60;;;;;;;;;;4956482;28;20374;-84
2023/03/09 11:08:59;;;;;;;2.95;0.85;;;;;;;;;;4989070;28;20026;-84
2023/03/09 11:11:26;;;;;;;4.43;1.00;;;;;;;;;;4959051;28;20114;-83
2023/03/09 11:13:53;;;;;;;8.68;1.10;;;;;;;;;;4961643;28;20038;-84
2023/03/09 11:16:24;;;;;;;1.77;0.93;;;;;;;;;;4981523;28;20038;-84
2023/03/09 11:19:09;;;;;;;3.90;1.10;;;;;;;;;;4978693;28;20064;-84
2023/03/09 11:21:43;;;;;;;3.17;1.05;;;;;;;;;;4961580;28;20026;-84
2023/03/09 11:24:10;;;;;;;4.93;0.60;;;;;;;;;;4965049;28;21009;-85
2023/03/09 11:26:41;;;;;;;1.80;0.95;;;;;;;;;;4962177;28;20426;-84
2023/03/09 11:29:27;;;;;;;1.13;0.73;;;;;;;;;;4976590;28;20126;-83
2023/03/09 11:31:56;;;;;;;3.75;0.98;;;;;;;;;;4995678;28;20011;-84
2023/03/09 11:34:32;;;;;;;2.50;0.47;;;;;;;;;;5004365;28;20030;-84
2023/03/09 11:37:23;;;;;;;3.15;0.98;;;;;;;;;;4975324;28;20034;-85
2023/03/09 11:40:10;;;;;;;3.60;0.70;;;;;;;;;;4962497;28;20027;-85
2023/03/09 11:42:38;;;;;;;3.22;0.80;;;;;;;;;;4976005;28;20089;-84
2023/03/09 11:45:15;;;;;;;2.15;0.80;;;;;;;;;;4970954;28;20384;-84
2023/03/09 11:47:44;;;;;;;0.57;0.57;;;;;;;;;;4964345;28;20024;-84
2023/03/09 11:50:23;;;;;;;3.05;0.82;;;;;;;;;;4973043;28;20061;-85
2023/03/09 11:53:00;;;;;;;5.30;0.80;;;;;;;;;;4975141;28;20113;-84
2023/03/09 11:55:34;;;;;;;3.75;1.25;;;;;;;;;;4971122;28;20062;-84
2023/03/09 11:58:03;;;;;;;1.80;0.50;;;;;;;;;;4979622;28;20504;-84
2023/03/09 12:00:33;;;;;;;1.92;0.52;;;;;;;;;;4979439;28;20035;-82
2023/03/09 12:03:19;;;;;;;4.50;0.90;;;;;;;;;;4965211;28;20405;-82
2023/03/09 12:06:32;;;;;;;0.20;0.20;;;;;;;;;;4973151;28;20022;-81
2023/03/09 12:09:02;;;;;;;1.40;0.30;;;;;;;;;;4954025;28;20508;-82
2023/03/09 12:11:47;;;;;;;1.00;0.30;;;;;;;;;;4977412;28;20041;-83
2023/03/09 12:14:30;;;;;;;1.45;0.30;;;;;;;;;;4955540;28;20034;-84
2023/03/09 12:17:03;;;;;;;1.33;0.50;;;;;;;;;;4985243;28;20033;-82
2023/03/09 12:19:32;;;;;;;0.73;0.52;;;;;;;;;;4962718;28;20801;-85
2023/03/09 12:22:02;;;;;;;2.50;0.45;;;;;;;;;;4984084;28;20031;-84
2023/03/09 12:24:33;;;;;;;2.70;0.50;;;;;;;;;;4965754;28;20480;-84
2023/03/09 12:27:13;;;;;;;0.52;0.32;;;;;;;;;;4971530;28;20027;-82
2023/03/09 12:29:47;;;;;;;0.63;0.32;;;;;;;;;;4976343;28;20042;-83
2023/03/09 12:32:21;;;;;;;1.60;0.60;;;;;;;;;;4979577;28;20031;-86
2023/03/09 12:34:50;;;;;;;1.83;0.57;;;;;;;;;;4968439;28;20038;-84
2023/03/09 12:37:30;;;;;;;0.75;0.20;;;;;;;;;;4975085;28;20085;-85
2023/03/09 12:39:59;;;;;;;2.63;0.50;;;;;;;;;;4976644;28;20037;-88
2023/03/09 12:42:37;;;;;;;1.98;0.55;;;;;;;;;;4977176;28;20090;-86
2023/03/09 12:45:22;;;;;;;0.98;0.43;;;;;;;;;;4988095;28;20026;-85
2023/03/09 12:47:56;;;;;;;1.80;0.50;;;;;;;;;;4982933;28;20565;-84
2023/03/09 12:50:24;;;;;;;0.88;0.50;;;;;;;;;;4984394;28;20035;-86
2023/03/09 12:53:14;;;;;;;3.72;0.63;;;;;;;;;;4980783;28;20030;-86
2023/03/09 12:55:39;;;;;;;2.33;0.57;;;;;;;;;;4979750;28;20062;-85
2023/03/09 12:58:17;;;;;;;1.92;0.50;;;;;;;;;;4973546;28;20481;-86
2023/03/09 13:00:59;;;;;;;0.43;0.40;;;;;;;;;;4986587;28;20023;-84
2023/03/09 13:03:31;;;;;;;3.47;1.00;;;;;;;;;;4978120;28;20014;-91
2023/03/09 13:05:58;;;;;;;3.58;1.00;;;;;;;;;;4962633;28;20019;-87
2023/03/09 13:08:56;;;;;;;4.75;0.70;;;;;;;;;;4977814;28;20109;-87
2023/03/09 13:11:25;;;;;;;2.90;0.90;;;;;;;;;;4920968;28;20070;-86
2023/03/09 13:13:50;;;;;;;3.80;0.80;;;;;;;;;;4958640;28;20031;-86
2023/03/09 13:16:31;;;;;;;2.80;1.13;;;;;;;;;;4975221;28;20038;-88
2023/03/09 13:19:17;;;;;;;4.32;0.60;;;;;;;;;;4976078;28;20497;-85
2023/03/09 13:21:48;;;;;;;1.73;1.00;;;;;;;;;;4973590;28;20077;-84
2023/03/09 13:24:19;;;;;;;1.92;0.60;;;;;;;;;;4975423;28;20031;-83
2023/03/09 13:26:47;;;;;;;2.97;0.80;;;;;;;;;;4967334;28;20433;-85
2023/03/09 13:29:16;;;;;;;3.70;0.80;;;;;;;;;;4957776;28;20042;-83
2023/03/09 13:31:45;;;;;;;2.63;0.82;;;;;;;;;;4954769;28;20023;-85
2023/03/09 13:34:23;;;;;;;1.33;0.55;;;;;;;;;;4965333;28;20026;-85
2023/03/09 13:36:51;;;;;;;1.70;0.90;;;;;;;;;;4969507;28;20041;-86
2023/03/09 13:39:20;;;;;;;2.85;0.40;;;;;;;;;;4966649;28;20053;-84
2023/03/09 13:41:45;;;;;;;3.00;0.85;;;;;;;;;;4963415;28;20481;-88
2023/03/09 13:44:16;;;;;;;2.00;1.00;;;;;;;;;;4958800;28;20082;-86
2023/03/09 13:46:46;;;;;;;4.57;0.60;;;;;;;;;;4957312;28;20027;-85
2023/03/09 13:49:34;;;;;;;1.27;0.65;;;;;;;;;;4977675;28;20030;-86
2023/03/09 13:52:03;;;;;;;2.20;0.57;;;;;;;;;;4962498;28;20037;-84
2023/03/09 13:54:48;;;;;;;5.43;1.38;;;;;;;;;;4982564;28;20077;-84
2023/03/09 13:57:20;;;;;;;1.20;0.60;;;;;;;;;;4952656;28;20019;-86
2023/03/09 14:00:19;;;;;;;2.25;0.98;;;;;;;;;;4974057;28;20054;-85
2023/03/09 14:02:45;;;;;;;3.35;1.20;;;;;;;;;;4955450;28;20069;-83
2023/03/09 14:05:14;;;;;;;4.60;1.05;;;;;;;;;;4976092;28;20481;-85
2023/03/09 14:07:57;;;;;;;2.03;0.98;;;;;;;;;;4957774;28;20452;-86
2023/03/09 14:10:29;;;;;;;7.10;2.25;;;;;;;;;;4954834;28;20053;-84
2023/03/09 14:12:59;;;;;;;5.68;1.35;;;;;;;;;;4965215;28;20034;-83
2023/03/09 14:15:25;;;;;;;7.10;1.67;;;;;;;;;;4963327;28;20432;-86
2023/03/09 14:17:51;;;;;;;2.40;1.33;;;;;;;;;;4958206;28;20480;-87
2023/03/09 14:20:25;;;;;;;6.00;1.23;;;;;;;;;;4977783;28;20023;-87
2023/03/09 14:22:51;;;;;;;4.18;1.02;;;;;;;;;;4961184;28;20065;-88
2023/03/09 14:25:23;;;;;;;1.70;1.08;;;;;;;;;;4975050;28;20595;-88
2023/03/09 14:27:48;;;;;;;2.75;1.15;;;;;;;;;;4976319;28;20473;-88
2023/03/09 14:30:52;;;;;;;2.65;1.00;;;;;;;;;;4982878;28;20042;-84
2023/03/09 14:33:32;;;;;;;5.13;0.73;;;;;;;;;;5005447;28;20049;-87
2023/03/09 14:36:16;;;;;;;2.33;1.08;;;;;;;;;;4989297;28;20035;-84
2023/03/09 14:38:59;;;;;;;7.07;0.88;;;;;;;;;;4978016;28;20026;-85
2023/03/09 14:41:30;;;;;;;2.28;0.65;;;;;;;;;;4977277;28;20097;-86
2023/03/09 14:43:56;;;;;;;2.38;1.10;;;;;;;;;;4953371;28;20033;-87
2023/03/09 14:46:27;;;;;;;2.25;0.82;;;;;;;;;;4960250;28;20026;-86
2023/03/09 14:48:55;;;;;;;1.90;0.73;;;;;;;;;;4965038;28;20026;-87
2023/03/09 14:51:32;;;;;;;1.23;0.95;;;;;;;;;;4979977;28;20288;-86
2023/03/09 14:54:16;;;;;;;1.95;0.70;;;;;;;;;;4975182;28;20062;-87
2023/03/09 14:56:42;;;;;;;1.88;0.80;;;;;;;;;;4961898;28;20030;-85